Time;durP1;ratioP1;P1;durP2;ratioP2;P2;SDS_P1;SDS_P2;PMS_P1;PMS_P2;Temp;Humidity;BMP_temperature;BMP_pressure;BME280_temperature;BME280_humidity;BME280_pressure;Samples;Min_cycle;Max_cycle;Signal;HPM_P1;HPM_P2
2023/06/01 16:53:29;;;;;;;5.93;3.00;;;;;;;23.84;31.89;101200.50;5118498;27;20135;-61
2023/06/01 16:55:57;;;;;;;5.78;2.35;;;;;;;22.95;33.87;101201.47;5093931;28;20044;-60
2023/06/01 16:58:23;;;;;;;6.43;3.15;;;;;;;22.84;34.01;101208.69;5101999;28;20083;-61
2023/06/01 17:00:50;;;;;;;11.20;3.35;;;;;;;22.22;35.05;101207.06;5098693;28;20201;-60
2023/06/01 17:03:17;;;;;;;11.00;2.58;;;;;;;22.10;35.31;101208.97;5097119;28;20086;-60
2023/06/01 17:05:44;;;;;;;17.77;2.88;;;;;;;21.99;35.63;101201.84;5100562;28;20048;-62
2023/06/01 17:08:10;;;;;;;13.75;3.75;;;;;;;21.67;35.99;101205.44;5103606;28;20044;-62
2023/06/01 17:10:37;;;;;;;7.40;2.75;;;;;;;21.33;35.88;101200.22;5100549;28;20050;-60
2023/06/01 17:13:04;;;;;;;9.40;3.70;;;;;;;21.18;35.95;101201.50;5103019;28;20051;-60
2023/06/01 17:15:32;;;;;;;13.35;4.53;;;;;;;21.17;36.29;101195.28;5098299;28;20419;-60
2023/06/01 17:17:59;;;;;;;10.23;2.38;;;;;;;20.98;36.35;101195.97;5101576;28;20040;-59
2023/06/01 17:20:26;;;;;;;12.23;2.72;;;;;;;20.82;36.43;101206.25;5099800;28;20071;-58
2023/06/01 17:22:52;;;;;;;10.05;2.40;;;;;;;20.82;36.13;101200.88;5101865;28;20048;-60
2023/06/01 17:25:19;;;;;;;9.57;2.70;;;;;;;20.77;36.14;101200.41;5088213;28;20070;-61
2023/06/01 17:27:48;;;;;;;7.25;2.55;;;;;;;20.79;36.10;101206.50;5099331;28;20048;-60
2023/06/01 17:30:14;;;;;;;10.20;4.28;;;;;;;20.67;36.39;101203.84;5099289;28;20067;-60
2023/06/01 17:32:41;;;;;;;10.30;3.30;;;;;;;20.67;36.36;101208.38;5102309;28;20060;-60
2023/06/01 17:35:08;;;;;;;11.93;3.22;;;;;;;20.57;37.12;101202.00;5097634;28;20151;-59
2023/06/01 17:37:35;;;;;;;7.68;2.97;;;;;;;20.38;37.59;101202.63;5098934;28;20048;-60
2023/06/01 17:40:03;;;;;;;10.63;3.45;;;;;;;20.16;38.15;101207.03;5084403;28;20197;-60
2023/06/01 17:42:29;;;;;;;13.00;2.50;;;;;;;20.03;38.76;101206.28;5101005;28;20032;-59
2023/06/01 17:44:56;;;;;;;7.40;2.58;;;;;;;19.86;39.45;101208.47;5112164;28;20071;-58
2023/06/01 17:47:24;;;;;;;15.27;3.60;;;;;;;19.74;39.83;101204.84;5094876;28;20054;-57
2023/06/01 17:49:53;;;;;;;10.68;4.03;;;;;;;19.71;40.15;101204.25;5101569;28;20143;-61
2023/06/01 17:52:20;;;;;;;8.32;2.80;;;;;;;19.63;40.52;101197.66;5102308;28;20449;-60
2023/06/01 17:54:47;;;;;;;10.38;3.28;;;;;;;19.70;40.60;101202.50;5095657;28;20049;-59
2023/06/01 17:57:14;;;;;;;11.35;3.60;;;;;;;19.57;40.80;101203.47;5105147;28;20079;-61
2023/06/01 17:59:41;;;;;;;15.55;3.22;;;;;;;19.53;40.91;101196.63;5099769;28;20144;-61
2023/06/01 18:02:08;;;;;;;15.57;5.60;;;;;;;19.47;40.13;101207.84;5105162;28;20052;-63
2023/06/01 18:04:35;;;;;;;15.93;4.03;;;;;;;19.35;40.52;101203.41;5089980;28;20079;-61
2023/06/01 18:07:01;;;;;;;15.20;5.95;;;;;;;19.39;40.63;101204.88;5090745;28;20044;-61
2023/06/01 18:09:28;;;;;;;6.28;3.38;;;;;;;19.37;40.92;101201.44;5075814;28;20048;-62
2023/06/01 18:11:55;;;;;;;8.48;2.63;;;;;;;19.23;41.37;101200.66;5080935;28;20540;-60
2023/06/01 18:14:21;;;;;;;18.38;5.40;;;;;;;19.21;41.61;101196.41;5097228;28;20078;-60
2023/06/01 18:16:48;;;;;;;18.25;5.32;;;;;;;19.03;42.15;101195.97;5093606;28;20078;-62
2023/06/01 18:19:15;;;;;;;11.52;3.40;;;;;;;18.99;42.42;101191.78;5092226;28;20183;-62
2023/06/01 18:21:41;;;;;;;10.02;3.03;;;;;;;19.02;42.45;101196.91;5088219;28;20147;-62
2023/06/01 18:24:08;;;;;;;8.80;2.80;;;;;;;19.03;42.51;101204.00;5090578;28;20518;-60
2023/06/01 18:26:35;;;;;;;13.75;3.97;;;;;;;18.89;42.69;101203.16;5090659;28;20478;-63
2023/06/01 18:29:02;;;;;;;8.10;2.65;;;;;;;18.82;42.98;101201.88;5087968;28;20375;-64
2023/06/01 18:31:29;;;;;;;10.52;3.95;;;;;;;18.72;43.34;101206.22;5090973;28;20379;-62
2023/06/01 18:33:55;;;;;;;14.95;6.07;;;;;;;18.69;43.36;101209.13;5092772;28;20052;-64
2023/06/01 18:36:22;;;;;;;11.80;4.15;;;;;;;18.57;43.83;101221.56;5098200;28;20143;-65
2023/06/01 18:38:49;;;;;;;9.63;3.05;;;;;;;18.46;43.59;101216.13;5093161;28;20432;-63
2023/06/01 18:41:15;;;;;;;13.00;3.47;;;;;;;18.40;43.80;101212.06;5085292;28;20060;-63
2023/06/01 18:43:42;;;;;;;10.27;2.80;;;;;;;18.30;44.16;101221.72;5091728;28;20105;-60
2023/06/01 18:46:09;;;;;;;11.82;4.03;;;;;;;18.18;44.13;101223.44;5090682;28;20045;-63
2023/06/01 18:48:36;;;;;;;10.45;3.33;;;;;;;18.24;43.88;101224.81;5082325;28;20058;-62
2023/06/01 18:51:04;;;;;;;14.65;3.25;;;;;;;18.17;44.10;101232.41;5089523;28;20052;-60
2023/06/01 18:53:31;;;;;;;10.35;3.13;;;;;;;18.07;44.31;101237.56;5084980;28;20511;-59
2023/06/01 18:55:58;;;;;;;9.50;3.08;;;;;;;17.99;44.57;101234.56;5086063;28;20055;-59
2023/06/01 18:58:26;;;;;;;10.27;3.20;;;;;;;17.89;44.94;101236.16;5082758;28;20063;-62
2023/06/01 19:00:53;;;;;;;8.73;2.85;;;;;;;17.82;45.39;101237.50;5089268;28;20403;-58
2023/06/01 19:03:19;;;;;;;9.10;3.15;;;;;;;17.79;45.49;101231.41;5089870;28;20500;-58
2023/06/01 19:05:46;;;;;;;8.02;3.10;;;;;;;17.66;45.84;101235.03;5080325;28;20051;-58
2023/06/01 19:08:20;;;;;;;10.35;3.13;;;;;;;17.63;45.99;101238.75;5081549;28;20369;-59
2023/06/01 19:11:05;;;;;;;8.82;3.05;;;;;;;17.61;46.36;101238.03;5084930;28;20389;-58
2023/06/01 19:13:44;;;;;;;9.63;3.13;;;;;;;17.51;46.88;101236.94;5084670;28;20193;-58
2023/06/01 19:16:13;;;;;;;7.93;2.42;;;;;;;17.40;47.30;101238.50;5073344;28;20056;-58
2023/06/01 19:18:46;;;;;;;12.85;5.10;;;;;;;17.34;47.75;101235.38;5078504;28;20063;-58
2023/06/01 19:21:24;;;;;;;8.90;3.25;;;;;;;17.18;48.21;101238.19;5085074;28;20104;-58
2023/06/01 19:23:53;;;;;;;12.43;3.70;;;;;;;17.09;48.56;101244.16;5090178;28;20044;-58
2023/06/01 19:26:24;;;;;;;11.55;4.15;;;;;;;17.10;48.80;101252.06;5088119;28;20113;-59
2023/06/01 19:29:00;;;;;;;9.75;3.60;;;;;;;16.95;49.12;101259.28;5091916;28;20071;-57
2023/06/01 19:31:33;;;;;;;10.65;3.90;;;;;;;16.89;49.45;101248.97;5087198;28;20085;-56
2023/06/01 19:34:01;;;;;;;25.65;14.45;;;;;;;16.84;49.77;101256.41;5087951;28;20537;-58
2023/06/01 19:36:43;;;;;;;16.35;7.30;;;;;;;16.70;49.91;101254.59;5085051;28;20056;-59
2023/06/01 19:39:24;;;;;;;12.50;4.68;;;;;;;16.72;50.19;101251.81;5075317;28;20048;-58
2023/06/01 19:41:51;;;;;;;22.27;5.53;;;;;;;16.64;50.28;101258.53;5110754;28;20219;-58
2023/06/01 19:44:25;;;;;;;43.30;20.77;;;;;;;16.49;50.74;101260.34;5094905;28;20117;-60
2023/06/01 19:46:52;;;;;;;15.52;3.83;;;;;;;16.41;50.85;101269.75;5083826;28;20078;-60
2023/06/01 19:49:21;;;;;;;12.68;3.60;;;;;;;16.39;50.86;101271.66;5090524;28;20052;-62
2023/06/01 19:51:48;;;;;;;19.35;3.90;;;;;;;16.27;51.29;101273.28;5086526;28;20124;-58
2023/06/01 19:54:23;;;;;;;14.95;3.97;;;;;;;16.19;51.79;101276.41;5080463;28;20060;-59
2023/06/01 19:56:53;;;;;;;14.15;2.90;;;;;;;16.10;51.85;101282.31;5063049;28;20045;-58
2023/06/01 19:59:22;;;;;;;6.35;2.70;;;;;;;16.04;52.04;101285.34;5061049;28;20080;-60
2023/06/01 20:01:50;;;;;;;12.63;3.45;;;;;;;15.97;52.11;101290.22;5058696;28;20236;-60
2023/06/01 20:04:17;;;;;;;34.08;17.67;;;;;;;15.99;52.44;101295.41;5061004;28;20057;-59
2023/06/01 20:06:48;;;;;;;18.45;5.10;;;;;;;15.96;52.71;101286.66;5059795;28;20080;-59
2023/06/01 20:09:17;;;;;;;16.45;3.15;;;;;;;15.87;52.51;101292.56;5061158;28;20049;-59
2023/06/01 20:11:52;;;;;;;11.05;3.28;;;;;;;15.83;52.87;101299.00;5063271;28;20048;-59
2023/06/01 20:14:27;;;;;;;16.50;3.65;;;;;;;15.76;53.20;101289.66;5056990;28;20148;-59
2023/06/01 20:16:55;;;;;;;9.93;3.15;;;;;;;15.68;53.38;101298.06;5060878;28;20044;-57
2023/06/01 20:19:22;;;;;;;14.45;3.65;;;;;;;15.60;53.87;101300.31;5062967;28;20052;-57
2023/06/01 20:21:54;;;;;;;22.42;4.90;;;;;;;15.52;54.15;101298.09;5064690;28;21666;-59
2023/06/01 20:24:26;;;;;;;14.00;3.63;;;;;;;15.52;54.19;101298.09;5059462;28;20048;-59
2023/06/01 20:26:57;;;;;;;14.35;3.72;;;;;;;15.44;54.10;101300.34;5062613;28;20052;-59
2023/06/01 20:29:28;;;;;;;17.50;5.05;;;;;;;15.36;54.64;101302.59;5061446;28;20055;-58
2023/06/01 20:31:58;;;;;;;13.07;3.72;;;;;;;15.30;54.68;101302.94;5059567;28;20071;-60
2023/06/01 20:34:27;;;;;;;10.52;3.25;;;;;;;15.21;55.31;101299.84;5061564;28;20135;-59
2023/06/01 20:36:53;;;;;;;11.70;3.58;;;;;;;15.13;55.22;101302.06;5061460;28;20080;-57
2023/06/01 20:39:21;;;;;;;10.15;3.38;;;;;;;15.13;55.33;101294.09;5058270;28;20463;-57
2023/06/01 20:41:51;;;;;;;15.00;3.47;;;;;;;15.02;55.92;101299.16;5062275;28;20072;-57
2023/06/01 20:44:22;;;;;;;14.85;4.32;;;;;;;15.03;55.63;101306.22;5057369;28;20045;-56
2023/06/01 20:46:50;;;;;;;8.05;3.35;;;;;;;14.85;56.49;101297.44;5043954;28;20052;-56
2023/06/01 20:49:21;;;;;;;19.02;3.38;;;;;;;14.84;56.50;101307.22;5060625;28;20064;-56
2023/06/01 20:51:47;;;;;;;15.15;3.55;;;;;;;14.81;56.71;101296.75;5061563;28;20087;-57
2023/06/01 20:54:16;;;;;;;12.18;2.95;;;;;;;14.74;56.94;101306.00;5061177;28;20475;-57
2023/06/01 20:56:46;;;;;;;7.35;3.03;;;;;;;14.62;57.20;101301.34;5064466;28;20128;-57
2023/06/01 20:59:19;;;;;;;7.57;2.58;;;;;;;14.59;57.21;101296.16;5063491;28;20136;-57
2023/06/01 21:01:51;;;;;;;12.65;3.28;;;;;;;14.56;57.46;101302.50;5066266;28;20052;-57
2023/06/01 21:04:20;;;;;;;14.63;3.70;;;;;;;14.48;57.85;101308.25;5061759;28;20048;-56
2023/06/01 21:06:47;;;;;;;12.82;3.88;;;;;;;14.43;57.99;101312.94;5041969;28;20059;-56
2023/06/01 21:09:14;;;;;;;9.70;3.72;;;;;;;14.36;58.23;101311.53;5065044;28;20055;-55
2023/06/01 21:11:42;;;;;;;11.05;3.25;;;;;;;14.30;58.68;101317.16;5068610;28;25360;-57
2023/06/01 21:14:12;;;;;;;15.05;3.88;;;;;;;14.22;59.13;101320.25;5062813;28;20040;-56
2023/06/01 21:16:39;;;;;;;11.70;3.72;;;;;;;14.17;59.21;101324.06;5061066;28;20053;-57
2023/06/01 21:19:06;;;;;;;12.98;3.45;;;;;;;14.17;59.21;101326.72;5062082;28;20102;-57
2023/06/01 21:21:32;;;;;;;11.93;3.08;;;;;;;14.03;59.77;101325.66;5061165;28;20059;-57
2023/06/01 21:23:59;;;;;;;18.33;4.45;;;;;;;14.05;59.71;101328.22;5062481;28;20048;-57
2023/06/01 21:26:26;;;;;;;12.48;4.38;;;;;;;13.96;60.10;101334.88;5069822;28;20056;-57
2023/06/01 21:28:53;;;;;;;14.98;4.07;;;;;;;13.92;60.22;101335.97;5064051;28;20080;-57
2023/06/01 21:31:20;;;;;;;18.83;4.90;;;;;;;13.83;60.45;101336.41;5060254;28;20432;-57
2023/06/01 21:33:47;;;;;;;13.48;4.40;;;;;;;13.72;61.20;101343.13;5061979;28;20040;-56
2023/06/01 21:36:13;;;;;;;14.40;3.92;;;;;;;13.65;61.31;101341.72;5061022;28;20052;-56
2023/06/01 21:38:40;;;;;;;12.00;3.40;;;;;;;13.63;61.35;101348.88;5065452;28;20123;-57
2023/06/01 21:41:08;;;;;;;12.80;3.47;;;;;;;13.58;61.63;101345.59;5066101;28;20044;-57
2023/06/01 21:43:35;;;;;;;13.73;3.20;;;;;;;13.54;61.56;101349.34;5068705;28;20045;-57
2023/06/01 21:46:02;;;;;;;13.73;3.53;;;;;;;13.49;61.96;101343.41;5067156;28;20044;-57
2023/06/01 21:48:30;;;;;;;17.98;3.30;;;;;;;13.41;62.49;101349.06;5065685;28;20053;-56
2023/06/01 21:50:58;;;;;;;12.75;4.05;;;;;;;13.35;62.38;101350.22;5068439;28;20071;-58
2023/06/01 21:53:25;;;;;;;9.40;3.25;;;;;;;13.29;62.56;101355.81;5069962;28;20080;-57
2023/06/01 21:55:52;;;;;;;21.73;4.35;;;;;;;13.25;62.84;101348.91;5066619;28;20151;-57
2023/06/01 21:58:23;;;;;;;17.77;3.38;;;;;;;13.26;62.81;101361.25;5063918;28;20061;-57
2023/06/01 22:00:50;;;;;;;17.67;4.68;;;;;;;13.17;62.95;101353.72;5067427;28;20052;-57
2023/06/01 22:03:19;;;;;;;20.23;3.90;;;;;;;13.09;63.17;101361.19;5058164;28;20487;-56
2023/06/01 22:05:46;;;;;;;12.30;3.35;;;;;;;13.02;63.41;101361.47;5061069;28;20052;-57
2023/06/01 22:08:14;;;;;;;15.32;4.40;;;;;;;12.97;63.40;101355.50;5070699;28;20045;-57
2023/06/01 22:10:41;;;;;;;13.15;3.40;;;;;;;12.89;64.05;101370.91;5052840;28;20667;-58
2023/06/01 22:13:08;;;;;;;15.07;2.75;;;;;;;12.84;64.29;101364.97;5065369;28;20080;-57
2023/06/01 22:15:34;;;;;;;14.05;3.83;;;;;;;12.78;64.52;101354.63;5063282;28;20068;-57
2023/06/01 22:18:01;;;;;;;13.75;4.05;;;;;;;12.72;64.41;101365.50;5066765;28;20154;-56
2023/06/01 22:20:28;;;;;;;10.48;3.10;;;;;;;12.63;64.39;101362.34;5069707;28;20088;-56
2023/06/01 22:22:55;;;;;;;17.30;2.70;;;;;;;12.61;64.94;101366.84;5067638;28;20041;-57
2023/06/01 22:25:21;;;;;;;21.45;3.60;;;;;;;12.51;64.67;101362.91;5070005;28;20057;-56
2023/06/01 22:27:48;;;;;;;11.27;3.45;;;;;;;12.47;65.30;101371.91;5067810;28;20044;-57
2023/06/01 22:30:15;;;;;;;10.02;4.20;;;;;;;12.42;65.44;101373.88;5068498;28;20135;-57
2023/06/01 22:32:41;;;;;;;18.77;3.25;;;;;;;12.22;65.88;101367.66;5065430;28;20045;-56
2023/06/01 22:35:08;;;;;;;18.80;4.40;;;;;;;12.29;65.82;101374.44;5064205;28;20139;-57
2023/06/01 22:37:35;;;;;;;18.70;3.38;;;;;;;12.22;65.70;101372.97;5065167;28;20079;-57
2023/06/01 22:40:05;;;;;;;13.00;3.40;;;;;;;12.24;65.96;101376.44;5066162;28;20057;-57
2023/06/01 22:42:33;;;;;;;16.55;2.95;;;;;;;12.21;66.15;101381.84;5065373;28;20052;-57
2023/06/01 22:44:59;;;;;;;13.20;3.95;;;;;;;12.14;65.98;101385.66;5065289;28;20627;-57
2023/06/01 22:47:26;;;;;;;18.77;3.40;;;;;;;12.12;65.81;101382.22;5070448;28;20044;-57
2023/06/01 22:49:56;;;;;;;17.25;2.85;;;;;;;12.10;66.36;101378.78;5063889;28;20048;-57
2023/06/01 22:52:26;;;;;;;22.30;4.35;;;;;;;12.06;66.09;101387.78;5062656;28;20129;-57
2023/06/01 22:54:54;;;;;;;17.42;3.78;;;;;;;12.06;65.97;101379.84;5061032;28;20079;-57
2023/06/01 22:57:21;;;;;;;17.25;3.78;;;;;;;12.02;66.38;101383.56;5063056;28;20047;-57
2023/06/01 22:59:48;;;;;;;28.38;4.43;;;;;;;11.96;66.28;101392.59;5064542;28;20064;-57
2023/06/01 23:02:15;;;;;;;20.15;4.05;;;;;;;11.91;66.27;101384.84;5064689;28;20060;-57
2023/06/01 23:04:44;;;;;;;13.90;3.53;;;;;;;11.89;66.62;101391.97;5063659;28;20049;-57
2023/06/01 23:07:12;;;;;;;14.15;4.45;;;;;;;11.83;66.97;101386.91;5062049;28;20086;-56
2023/06/01 23:09:40;;;;;;;25.27;3.97;;;;;;;11.82;66.94;101394.91;5061090;28;20040;-57
2023/06/01 23:12:07;;;;;;;24.70;4.22;;;;;;;11.81;66.71;101395.84;5064981;28;20147;-57
2023/06/01 23:14:33;;;;;;;20.80;4.40;;;;;;;11.71;67.36;101403.31;5066616;28;20040;-57
2023/06/01 23:17:03;;;;;;;23.95;5.65;;;;;;;11.65;67.47;101398.25;5061972;28;20052;-57
2023/06/01 23:19:32;;;;;;;20.98;3.47;;;;;;;11.60;67.53;101410.81;5065993;28;20060;-57
2023/06/01 23:22:03;;;;;;;18.45;5.15;;;;;;;11.61;67.41;101412.56;5063568;28;20051;-58
2023/06/01 23:24:31;;;;;;;16.17;4.75;;;;;;;11.62;66.89;101409.81;5061738;28;20072;-57
2023/06/01 23:27:01;;;;;;;16.65;3.78;;;;;;;11.49;67.78;101412.09;5063915;28;20408;-57
2023/06/01 23:29:28;;;;;;;14.13;3.33;;;;;;;11.48;67.10;101407.72;5059943;28;20060;-57
2023/06/01 23:31:55;;;;;;;16.77;4.20;;;;;;;11.44;67.57;101411.41;5064609;28;20461;-58
2023/06/01 23:34:22;;;;;;;23.25;4.32;;;;;;;11.40;67.67;101404.50;5063045;28;20113;-57
2023/06/01 23:36:52;;;;;;;34.92;5.80;;;;;;;11.26;68.20;101414.75;5069732;28;20135;-57
2023/06/01 23:39:21;;;;;;;28.15;5.47;;;;;;;11.17;68.65;101411.53;5072390;28;20052;-57
2023/06/01 23:41:48;;;;;;;19.48;4.43;;;;;;;11.25;68.25;101410.41;5066392;28;20459;-57
2023/06/01 23:44:18;;;;;;;14.43;3.67;;;;;;;11.11;68.69;101419.69;5072745;28;20130;-57
2023/06/01 23:46:46;;;;;;;16.85;3.75;;;;;;;11.17;68.99;101414.19;5076712;28;20045;-57
2023/06/01 23:49:13;;;;;;;16.67;4.53;;;;;;;11.05;68.64;101417.31;5077735;28;20091;-57
2023/06/01 23:51:40;;;;;;;22.55;4.63;;;;;;;11.05;69.31;101414.66;5073384;28;20056;-57
2023/06/01 23:54:07;;;;;;;19.08;3.53;;;;;;;11.02;69.23;101410.34;5066428;28;20531;-57
2023/06/01 23:56:34;;;;;;;11.70;4.82;;;;;;;10.97;68.57;101411.44;5071496;28;20102;-57
2023/06/01 23:59:01;;;;;;;19.45;4.15;;;;;;;10.95;69.30;101407.97;5071278;28;20480;-57
